Time;durP1;ratioP1;P1;durP2;ratioP2;P2;SDS_P1;SDS_P2;PMS_P1;PMS_P2;Temp;Humidity;BMP_temperature;BMP_pressure;BME280_temperature;BME280_humidity;BME280_pressure;Samples;Min_cycle;Max_cycle;Signal;HPM_P1;HPM_P2
2020/12/13 00:01:03;;;;;;;36.90;24.00;;;4.50;99.90;;;;;;5083746;28;20451;-85
2020/12/13 00:03:29;;;;;;;37.30;24.47;;;4.50;99.90;;;;;;5083039;28;20455;-85
2020/12/13 00:05:56;;;;;;;40.20;24.93;;;4.50;99.90;;;;;;5079702;28;20459;-88
2020/12/13 00:08:23;;;;;;;32.77;23.60;;;4.60;99.90;;;;;;5082240;28;20474;-86
2020/12/13 00:10:54;;;;;;;36.23;24.17;;;4.60;99.90;;;;;;5082810;28;20470;-86
2020/12/13 00:13:21;;;;;;;36.47;25.07;;;4.60;99.60;;;;;;5089024;28;20460;-86
2020/12/13 00:15:47;;;;;;;34.47;24.53;;;4.60;99.90;;;;;;5085878;28;20468;-88
2020/12/13 00:18:21;;;;;;;42.07;25.97;;;4.60;99.90;;;;;;5082684;28;20459;-86
2020/12/13 00:20:48;;;;;;;37.33;25.10;;;4.70;99.90;;;;;;5084578;28;20461;-87
2020/12/13 00:23:17;;;;;;;37.43;24.57;;;4.60;99.90;;;;;;5081680;28;21161;-85
2020/12/13 00:25:43;;;;;;;37.87;25.07;;;4.70;99.90;;;;;;5091560;28;20451;-87
2020/12/13 00:28:10;;;;;;;38.90;23.63;;;4.70;99.40;;;;;;5092761;28;20505;-88
2020/12/13 00:30:37;;;;;;;36.10;25.07;;;4.70;99.00;;;;;;5097969;28;20428;-87
2020/12/13 00:33:06;;;;;;;40.83;22.60;;;4.70;99.10;;;;;;5098476;28;20547;-87
2020/12/13 00:35:32;;;;;;;38.33;23.70;;;4.70;98.90;;;;;;5086905;28;20562;-84
2020/12/13 00:37:59;;;;;;;41.13;23.93;;;4.80;99.60;;;;;;5086390;28;20452;-84
2020/12/13 00:40:26;;;;;;;38.23;23.07;;;4.70;98.10;;;;;;5086625;28;20461;-85
2020/12/13 00:42:52;;;;;;;35.87;23.90;;;4.70;99.40;;;;;;5084514;28;20475;-85
2020/12/13 00:45:22;;;;;;;36.87;24.07;;;4.70;99.80;;;;;;5079457;28;20472;-85
2020/12/13 00:47:48;;;;;;;36.57;24.37;;;4.70;99.80;;;;;;5082625;28;20479;-86
2020/12/13 00:50:16;;;;;;;36.47;23.60;;;4.80;99.20;;;;;;5084989;28;20878;-84
2020/12/13 00:52:44;;;;;;;35.90;23.83;;;4.80;99.10;;;;;;5079692;28;20482;-85
2020/12/13 00:55:13;;;;;;;38.00;24.30;;;4.80;99.10;;;;;;5088273;28;20466;-84
2020/12/13 00:57:40;;;;;;;37.20;23.73;;;4.90;99.10;;;;;;5083396;28;20441;-84
2020/12/13 01:00:07;;;;;;;40.57;24.57;;;4.80;98.70;;;;;;5084888;28;20524;-84
2020/12/13 01:02:34;;;;;;;39.00;24.57;;;4.80;98.60;;;;;;5082337;28;20449;-84
2020/12/13 01:05:04;;;;;;;40.97;23.27;;;4.90;99.20;;;;;;5079592;28;20443;-86
2020/12/13 01:07:30;;;;;;;40.03;25.73;;;4.80;98.60;;;;;;5081720;28;20498;-86
2020/12/13 01:09:57;;;;;;;39.23;23.30;;;4.70;99.90;;;;;;5081238;28;20450;-83
2020/12/13 01:12:25;;;;;;;39.07;24.57;;;4.70;99.90;;;;;;5093503;28;20466;-85
2020/12/13 01:14:54;;;;;;;38.63;24.77;;;4.80;99.90;;;;;;5079806;28;20480;-85
2020/12/13 01:17:22;;;;;;;41.07;24.67;;;4.80;99.90;;;;;;5083963;28;20795;-85
2020/12/13 01:19:52;;;;;;;44.10;25.10;;;4.80;99.90;;;;;;5081338;28;22419;-85
2020/12/13 01:22:23;;;;;;;41.80;25.80;;;4.90;99.90;;;;;;5082923;28;20455;-85
2020/12/13 01:24:49;;;;;;;42.33;25.17;;;4.90;98.60;;;;;;5085092;28;20456;-85
2020/12/13 01:27:16;;;;;;;45.70;27.40;;;4.90;99.20;;;;;;5085808;28;20492;-85
2020/12/13 01:29:42;;;;;;;44.00;25.53;;;4.90;98.30;;;;;;5081645;28;20480;-86
2020/12/13 01:32:09;;;;;;;49.37;26.17;;;5.00;98.20;;;;;;5083757;28;20448;-84
2020/12/13 01:34:35;;;;;;;42.67;25.70;;;5.00;98.20;;;;;;5082218;28;20486;-84
2020/12/13 01:37:03;;;;;;;42.17;24.27;;;5.00;97.80;;;;;;5082264;28;20456;-85
2020/12/13 01:39:29;;;;;;;42.73;25.60;;;5.10;97.70;;;;;;5082678;28;20471;-84
2020/12/13 01:41:59;;;;;;;41.50;23.93;;;5.00;97.00;;;;;;5088992;28;20509;-85
2020/12/13 01:44:33;;;;;;;41.00;25.40;;;4.90;98.10;;;;;;5083337;28;20448;-84
2020/12/13 01:47:01;;;;;;;41.70;26.50;;;4.90;99.20;;;;;;5073356;28;20457;-85
2020/12/13 01:49:31;;;;;;;43.63;25.20;;;4.80;99.90;;;;;;5083946;28;20522;-85
2020/12/13 01:54:45;;;;;;;40.17;24.70;;;4.80;99.90;;;;;;5065355;28;20452;-84
2020/12/13 01:57:13;;;;;;;42.80;25.63;;;4.90;99.90;;;;;;5075088;28;20446;-84
2020/12/13 01:59:40;;;;;;;44.00;26.13;;;4.90;98.30;;;;;;5071982;28;20460;-85
2020/12/13 02:02:08;;;;;;;39.43;23.57;;;4.80;98.60;;;;;;5080162;28;20474;-86
2020/12/13 02:04:36;;;;;;;42.57;25.13;;;4.70;99.90;;;;;;5088055;28;20466;-85
2020/12/13 02:07:05;;;;;;;41.43;24.73;;;4.70;99.90;;;;;;5081825;28;20471;-85
2020/12/13 02:09:31;;;;;;;40.50;25.57;;;4.80;99.90;;;;;;5084337;28;20960;-84
2020/12/13 02:11:58;;;;;;;42.43;25.10;;;4.80;99.90;;;;;;5084402;28;20494;-86
2020/12/13 02:14:26;;;;;;;43.43;24.20;;;4.70;99.90;;;;;;5085671;28;20475;-87
2020/12/13 02:16:52;;;;;;;41.97;24.93;;;4.70;99.90;;;;;;5082247;28;20488;-83
2020/12/13 02:19:20;;;;;;;43.07;25.27;;;4.80;99.90;;;;;;5090868;28;20458;-83
2020/12/13 02:21:48;;;;;;;47.30;26.43;;;4.80;99.90;;;;;;5086279;28;20444;-84
2020/12/13 02:24:16;;;;;;;46.80;25.37;;;4.60;99.90;;;;;;5082124;28;20544;-84
2020/12/13 02:26:44;;;;;;;46.53;25.67;;;4.60;99.90;;;;;;5087949;28;20477;-86
2020/12/13 02:29:11;;;;;;;42.50;25.27;;;4.80;99.90;;;;;;5087321;28;20486;-84
2020/12/13 02:31:38;;;;;;;40.40;24.17;;;4.80;99.90;;;;;;5090356;28;20520;-87
2020/12/13 02:34:05;;;;;;;40.73;26.00;;;4.90;99.90;;;;;;5093148;28;20440;-86
2020/12/13 02:36:33;;;;;;;38.60;24.70;;;4.90;99.90;;;;;;5093831;28;20440;-87
2020/12/13 02:39:02;;;;;;;42.27;25.97;;;4.90;99.90;;;;;;5097438;28;20471;-87
2020/12/13 02:41:31;;;;;;;47.83;26.33;;;4.90;99.90;;;;;;5096602;28;20443;-86
2020/12/13 02:43:58;;;;;;;44.40;25.53;;;4.90;99.20;;;;;;5093282;28;20459;-86
2020/12/13 02:46:24;;;;;;;49.03;27.17;;;4.60;99.90;;;;;;5094411;28;20472;-87
2020/12/13 02:48:50;;;;;;;50.97;25.47;;;4.70;99.90;;;;;;5093736;28;20492;-83
2020/12/13 02:51:17;;;;;;;46.67;25.37;;;4.70;99.90;;;;;;5084806;28;20447;-84
2020/12/13 02:53:45;;;;;;;39.87;25.27;;;4.80;99.90;;;;;;5081404;28;20796;-85
2020/12/13 02:56:11;;;;;;;42.77;25.90;;;4.70;99.90;;;;;;5084350;28;21017;-85
2020/12/13 02:58:39;;;;;;;50.67;27.00;;;4.70;99.90;;;;;;5083423;28;20451;-83
2020/12/13 03:01:05;;;;;;;49.17;27.40;;;4.80;99.90;;;;;;5083642;28;20440;-86
2020/12/13 03:03:32;;;;;;;46.30;25.93;;;4.90;99.90;;;;;;5074164;28;20469;-84
2020/12/13 03:05:59;;;;;;;42.33;24.90;;;4.90;99.90;;;;;;5079065;28;20498;-83
2020/12/13 03:08:25;;;;;;;44.97;26.67;;;4.70;99.90;;;;;;5096048;28;20480;-87
2020/12/13 03:10:51;;;;;;;40.37;24.93;;;4.80;99.90;;;;;;5090932;28;20429;-85
2020/12/13 03:13:18;;;;;;;45.83;25.00;;;4.90;99.90;;;;;;5081797;28;20457;-83
2020/12/13 03:15:45;;;;;;;49.50;26.83;;;5.10;99.90;;;;;;5083890;28;20451;-83
2020/12/13 03:18:12;;;;;;;49.13;25.97;;;5.10;99.90;;;;;;5086399;28;20950;-84
2020/12/13 03:20:40;;;;;;;52.47;26.33;;;5.10;99.10;;;;;;5088828;28;20459;-83
2020/12/13 03:23:07;;;;;;;47.77;25.87;;;5.00;99.40;;;;;;5089379;28;20971;-87
2020/12/13 03:25:33;;;;;;;48.93;28.10;;;4.80;99.90;;;;;;5092582;28;20558;-86
2020/12/13 03:28:00;;;;;;;48.97;26.60;;;4.90;99.90;;;;;;5088456;28;20473;-87
2020/12/13 03:30:26;;;;;;;49.97;25.83;;;5.00;99.90;;;;;;5086085;28;20457;-86
2020/12/13 03:32:53;;;;;;;45.60;24.47;;;5.00;99.90;;;;;;5083714;28;20509;-85
2020/12/13 03:35:22;;;;;;;44.30;24.33;;;5.10;99.90;;;;;;5084738;28;20440;-86
2020/12/13 03:37:49;;;;;;;47.33;25.50;;;5.10;99.90;;;;;;5086563;28;20459;-86
2020/12/13 03:40:15;;;;;;;44.33;25.07;;;5.10;99.90;;;;;;5085976;28;20448;-85
2020/12/13 03:42:44;;;;;;;45.73;25.13;;;5.10;99.90;;;;;;5084443;28;20495;-86
2020/12/13 03:45:14;;;;;;;49.30;25.90;;;5.10;99.90;;;;;;5083452;28;20445;-86
2020/12/13 03:47:40;;;;;;;46.50;24.87;;;5.20;99.80;;;;;;5086956;28;20463;-87
2020/12/13 03:50:08;;;;;;;42.53;25.77;;;5.10;99.90;;;;;;5083303;28;20479;-87
2020/12/13 03:52:34;;;;;;;49.13;26.63;;;5.20;99.90;;;;;;5095128;28;20471;-87
2020/12/13 03:55:00;;;;;;;44.17;25.57;;;5.20;99.70;;;;;;5090042;28;20444;-85
2020/12/13 03:57:27;;;;;;;48.10;25.83;;;5.20;99.90;;;;;;5090164;28;20524;-85
2020/12/13 03:59:54;;;;;;;43.20;24.93;;;5.20;99.90;;;;;;5091986;28;20557;-85
2020/12/13 04:02:21;;;;;;;49.07;24.80;;;5.20;99.90;;;;;;5091019;28;20460;-84
2020/12/13 04:04:47;;;;;;;48.17;25.73;;;5.20;99.90;;;;;;5094091;28;20473;-85
2020/12/13 04:07:14;;;;;;;48.90;25.80;;;5.20;98.40;;;;;;5088594;28;20467;-86
2020/12/13 04:09:41;;;;;;;36.40;23.90;;;5.20;99.90;;;;;;5097063;28;20481;-84
2020/12/13 04:12:07;;;;;;;45.30;24.43;;;5.30;99.90;;;;;;5091668;28;20504;-86
2020/12/13 04:14:34;;;;;;;45.60;25.17;;;5.10;99.90;;;;;;5091644;28;20473;-84
2020/12/13 04:17:03;;;;;;;45.20;24.20;;;5.20;99.90;;;;;;5094860;28;20489;-84
2020/12/13 04:19:31;;;;;;;48.93;25.43;;;5.10;99.90;;;;;;5093554;28;20481;-84
2020/12/13 04:22:03;;;;;;;38.83;24.63;;;5.20;99.90;;;;;;5093506;28;20452;-84
2020/12/13 04:24:30;;;;;;;43.93;25.27;;;5.20;99.90;;;;;;5087629;28;20435;-86
2020/12/13 04:26:57;;;;;;;44.87;25.67;;;5.20;99.70;;;;;;5095434;28;20471;-83
2020/12/13 04:29:23;;;;;;;53.30;28.03;;;5.00;99.90;;;;;;5096908;28;20478;-84
2020/12/13 04:31:50;;;;;;;43.47;26.00;;;5.10;99.90;;;;;;5098231;28;20451;-84
2020/12/13 04:34:16;;;;;;;43.30;25.47;;;5.20;99.90;;;;;;5104022;28;20431;-86
2020/12/13 04:36:43;;;;;;;45.13;26.10;;;5.20;99.90;;;;;;5096475;28;20832;-84
2020/12/13 04:39:09;;;;;;;49.53;26.80;;;5.00;99.90;;;;;;5096346;28;20459;-83
2020/12/13 04:41:40;;;;;;;47.60;25.73;;;5.00;99.90;;;;;;5093988;28;20485;-84
2020/12/13 04:44:09;;;;;;;49.17;27.00;;;5.00;99.90;;;;;;5092331;28;20451;-84
2020/12/13 04:46:40;;;;;;;53.50;26.70;;;5.10;99.90;;;;;;5090706;28;20460;-86
2020/12/13 04:49:07;;;;;;;46.50;25.03;;;5.20;99.90;;;;;;5092823;28;20544;-84
2020/12/13 04:51:36;;;;;;;54.90;25.13;;;5.20;99.90;;;;;;5088481;28;20455;-88
2020/12/13 04:54:05;;;;;;;46.07;25.93;;;5.20;99.90;;;;;;5090630;28;20460;-85
2020/12/13 04:56:33;;;;;;;53.10;24.30;;;5.30;99.90;;;;;;5090896;28;20470;-84
2020/12/13 04:59:04;;;;;;;48.50;27.13;;;5.30;99.90;;;;;;5089577;28;20486;-87
2020/12/13 05:01:32;;;;;;;50.13;25.73;;;5.30;99.90;;;;;;5094053;28;20448;-86
2020/12/13 05:03:59;;;;;;;42.40;25.23;;;5.30;99.90;;;;;;5090982;28;20462;-86
2020/12/13 05:06:26;;;;;;;41.77;23.60;;;5.10;99.90;;;;;;5092017;28;20447;-84
2020/12/13 05:08:53;;;;;;;44.17;25.40;;;5.10;99.90;;;;;;5092125;28;20461;-84
2020/12/13 05:11:19;;;;;;;34.93;22.33;;;5.20;99.90;;;;;;5082227;28;20499;-85
2020/12/13 05:13:46;;;;;;;32.20;20.97;;;5.30;99.90;;;;;;5081591;28;20537;-84
2020/12/13 05:16:13;;;;;;;29.70;21.07;;;5.30;99.90;;;;;;5081396;28;20483;-83
2020/12/13 05:18:40;;;;;;;35.93;22.33;;;5.30;99.90;;;;;;5088206;28;20519;-83
2020/12/13 05:21:07;;;;;;;35.90;21.60;;;5.40;99.90;;;;;;5091968;28;20460;-84
2020/12/13 05:23:34;;;;;;;36.00;22.83;;;5.40;99.90;;;;;;5087606;28;20455;-86
2020/12/13 05:26:01;;;;;;;34.83;22.20;;;5.30;99.90;;;;;;5089963;28;21043;-82
2020/12/13 05:28:27;;;;;;;41.80;23.80;;;5.40;99.90;;;;;;5080644;28;20498;-86
2020/12/13 05:30:54;;;;;;;38.80;23.33;;;5.30;99.90;;;;;;5089625;28;20464;-84
2020/12/13 05:33:26;;;;;;;40.00;23.70;;;5.40;99.90;;;;;;5083892;28;20453;-84
2020/12/13 05:36:03;;;;;;;39.93;23.23;;;5.40;99.90;;;;;;5084813;28;20534;-83
2020/12/13 05:38:32;;;;;;;33.77;24.20;;;5.40;99.90;;;;;;5069638;28;21019;-83
2020/12/13 05:40:59;;;;;;;39.83;23.77;;;5.30;99.90;;;;;;5082544;28;20444;-84
2020/12/13 05:43:28;;;;;;;34.90;20.70;;;5.40;99.90;;;;;;5083741;28;20459;-83
2020/12/13 05:51:39;;;;;;;40.90;22.90;;;5.20;99.90;;;;;;5085375;28;20445;-86
2020/12/13 05:54:18;;;;;;;46.70;24.23;;;5.10;99.90;;;;;;5085399;28;20443;-86
2020/12/13 05:56:46;;;;;;;38.67;23.43;;;5.20;99.90;;;;;;5082915;28;20460;-82
2020/12/13 05:59:13;;;;;;;39.37;23.40;;;5.20;99.90;;;;;;5084635;28;20439;-87
2020/12/13 06:01:39;;;;;;;43.20;25.43;;;5.30;99.90;;;;;;5085254;28;20464;-82
2020/12/13 06:04:13;;;;;;;38.97;23.70;;;5.30;99.90;;;;;;5085334;28;20444;-82
2020/12/13 06:06:43;;;;;;;39.53;24.67;;;5.40;99.90;;;;;;5082606;28;20465;-84
2020/12/13 06:09:10;;;;;;;39.03;23.07;;;5.50;99.90;;;;;;5076143;28;21022;-80
2020/12/13 06:11:44;;;;;;;39.60;24.13;;;5.40;99.90;;;;;;5074705;28;20483;-79
2020/12/13 06:14:16;;;;;;;38.37;24.73;;;5.50;99.90;;;;;;5075864;28;20468;-79
2020/12/13 06:16:46;;;;;;;34.87;22.33;;;5.50;99.90;;;;;;5081212;28;20466;-83
2020/12/13 06:19:14;;;;;;;41.20;23.23;;;5.40;99.90;;;;;;5078153;28;20524;-81
2020/12/13 06:21:45;;;;;;;39.93;24.37;;;5.40;99.90;;;;;;5082486;28;20444;-80
2020/12/13 06:24:12;;;;;;;37.43;22.03;;;5.40;99.90;;;;;;5080908;28;20457;-80
2020/12/13 06:26:39;;;;;;;35.87;21.87;;;5.50;99.90;;;;;;5073800;28;21017;-80
2020/12/13 06:29:07;;;;;;;40.77;22.17;;;5.50;99.90;;;;;;5075254;28;20518;-83
2020/12/13 06:31:34;;;;;;;43.80;25.20;;;5.50;99.90;;;;;;5074027;28;20456;-82
2020/12/13 06:34:01;;;;;;;40.27;23.07;;;5.50;99.90;;;;;;5073970;28;20523;-79
2020/12/13 06:36:34;;;;;;;38.20;22.77;;;5.50;99.90;;;;;;5075182;28;20461;-83
2020/12/13 06:39:02;;;;;;;41.33;23.03;;;5.50;99.90;;;;;;5084335;28;20429;-82
2020/12/13 06:41:31;;;;;;;43.17;24.27;;;5.50;99.90;;;;;;5078326;28;20467;-81
2020/12/13 06:44:04;;;;;;;44.53;25.07;;;5.50;99.90;;;;;;5085256;28;20519;-88
2020/12/13 06:46:32;;;;;;;44.13;21.87;;;5.50;99.90;;;;;;5094037;28;20455;-87
2020/12/13 06:49:00;;;;;;;43.73;23.07;;;5.50;99.90;;;;;;5098888;28;20478;-90
2020/12/13 06:51:29;;;;;;;38.23;22.80;;;5.40;99.90;;;;;;5091637;28;20512;-85
2020/12/13 06:53:56;;;;;;;49.33;24.30;;;5.50;99.90;;;;;;5094554;28;20456;-87
2020/12/13 06:56:23;;;;;;;40.93;24.10;;;5.50;99.90;;;;;;5081489;28;21350;-88
2020/12/13 06:58:58;;;;;;;39.67;23.27;;;5.50;99.90;;;;;;5081233;28;20514;-81
2020/12/13 07:01:27;;;;;;;43.10;22.77;;;5.50;99.90;;;;;;5083347;28;20452;-82
2020/12/13 07:03:55;;;;;;;45.13;23.27;;;5.50;99.90;;;;;;5079973;28;20485;-83
2020/12/13 07:06:24;;;;;;;43.83;25.30;;;5.50;99.90;;;;;;5073566;28;20452;-83
2020/12/13 07:08:58;;;;;;;45.20;23.57;;;5.50;99.90;;;;;;5077479;28;20472;-85
2020/12/13 07:11:29;;;;;;;46.00;23.67;;;5.50;99.90;;;;;;5074399;28;20492;-84
2020/12/13 07:14:05;;;;;;;42.73;22.93;;;5.50;99.90;;;;;;5072585;28;20469;-84
2020/12/13 07:16:37;;;;;;;43.17;23.23;;;5.50;99.90;;;;;;5071622;28;20911;-88
2020/12/13 07:19:07;;;;;;;44.03;23.83;;;5.50;99.90;;;;;;5073177;28;21040;-83
2020/12/13 07:21:34;;;;;;;47.10;22.37;;;5.60;99.90;;;;;;5076304;28;20445;-85
2020/12/13 07:24:02;;;;;;;44.93;21.93;;;5.50;99.90;;;;;;5078414;28;20519;-81
2020/12/13 07:26:30;;;;;;;41.33;22.77;;;5.50;99.90;;;;;;5067991;28;20456;-77
2020/12/13 07:28:59;;;;;;;44.90;23.10;;;5.50;99.90;;;;;;5065769;28;20467;-75
2020/12/13 07:31:35;;;;;;;39.67;21.50;;;5.40;99.90;;;;;;5068989;28;20465;-77
2020/12/13 07:34:02;;;;;;;42.87;21.57;;;5.40;99.90;;;;;;5061319;28;20452;-76
2020/12/13 07:36:29;;;;;;;39.90;21.33;;;5.50;99.90;;;;;;5067874;28;20546;-73
2020/12/13 07:38:56;;;;;;;41.10;22.80;;;5.50;99.90;;;;;;5061769;28;20947;-74
2020/12/13 07:41:25;;;;;;;43.27;22.10;;;5.50;99.90;;;;;;5059451;28;20440;-74
2020/12/13 07:43:57;;;;;;;40.60;22.43;;;5.60;99.90;;;;;;5062869;28;20561;-75
2020/12/13 07:46:24;;;;;;;42.70;21.97;;;5.60;99.90;;;;;;5056099;28;20865;-75
2020/12/13 07:49:04;;;;;;;45.77;23.17;;;5.70;99.90;;;;;;5060816;28;21385;-74
2020/12/13 07:51:31;;;;;;;39.60;21.30;;;5.60;99.90;;;;;;5053525;28;20936;-74
2020/12/13 07:54:07;;;;;;;37.70;21.80;;;5.70;99.90;;;;;;5056457;28;21418;-74
2020/12/13 07:56:35;;;;;;;35.90;20.90;;;5.70;99.90;;;;;;5072808;28;20481;-78
2020/12/13 07:59:12;;;;;;;38.20;20.53;;;5.80;99.90;;;;;;5059972;28;20494;-74
2020/12/13 08:01:40;;;;;;;37.67;21.37;;;5.80;99.90;;;;;;5066825;28;20512;-73
2020/12/13 08:04:09;;;;;;;37.70;20.53;;;5.80;99.90;;;;;;5059689;28;20474;-74
2020/12/13 08:06:35;;;;;;;33.07;21.47;;;5.80;99.90;;;;;;5060207;28;20467;-75
2020/12/13 08:09:07;;;;;;;42.80;22.20;;;5.80;99.90;;;;;;5061650;28;20519;-74
2020/12/13 08:11:35;;;;;;;39.57;22.73;;;5.90;99.90;;;;;;5058703;28;20448;-75
2020/12/13 08:14:04;;;;;;;34.10;21.90;;;6.00;99.90;;;;;;5066274;28;20479;-76
2020/12/13 08:16:30;;;;;;;35.20;22.00;;;6.00;99.90;;;;;;5059045;28;20835;-74
2020/12/13 08:19:03;;;;;;;34.97;21.60;;;6.00;99.90;;;;;;5067625;28;20576;-76
2020/12/13 08:21:37;;;;;;;35.00;20.87;;;6.00;99.90;;;;;;5054733;28;20607;-74
2020/12/13 08:24:04;;;;;;;33.43;21.10;;;6.10;99.90;;;;;;5069494;28;20447;-75
2020/12/13 08:26:34;;;;;;;32.53;21.60;;;6.10;99.10;;;;;;5065136;28;20445;-74
2020/12/13 08:29:02;;;;;;;33.97;21.87;;;6.10;99.00;;;;;;5063956;28;20527;-74
2020/12/13 08:31:30;;;;;;;36.50;22.20;;;6.00;99.70;;;;;;5062195;28;20484;-73
2020/12/13 08:34:04;;;;;;;32.60;19.63;;;6.10;99.00;;;;;;5065622;28;20460;-75
2020/12/13 08:36:31;;;;;;;32.40;19.53;;;6.10;99.90;;;;;;5063389;28;20514;-73
2020/12/13 08:39:09;;;;;;;32.83;20.70;;;6.10;99.90;;;;;;5065819;28;20471;-75
2020/12/13 08:41:43;;;;;;;32.73;20.83;;;6.10;99.90;;;;;;5059272;28;20448;-74
2020/12/13 08:44:28;;;;;;;32.10;19.70;;;6.10;99.90;;;;;;5062306;28;20455;-73
2020/12/13 08:46:56;;;;;;;31.13;20.20;;;6.20;99.60;;;;;;5062502;28;20464;-74
2020/12/13 08:49:27;;;;;;;28.43;19.93;;;6.20;99.90;;;;;;5066553;28;20468;-75
2020/12/13 08:51:54;;;;;;;32.43;20.20;;;6.20;99.90;;;;;;5061393;28;20460;-75
2020/12/13 08:54:21;;;;;;;29.60;20.10;;;6.20;99.90;;;;;;5070596;28;20463;-73
2020/12/13 08:56:53;;;;;;;30.90;19.97;;;6.20;99.00;;;;;;5061546;28;20590;-74
2020/12/13 08:59:22;;;;;;;30.93;19.90;;;6.30;99.00;;;;;;5077163;28;20461;-73
2020/12/13 09:01:58;;;;;;;34.17;20.10;;;6.30;99.40;;;;;;5067888;28;21049;-74
2020/12/13 09:04:28;;;;;;;30.50;19.80;;;6.40;99.10;;;;;;5067246;28;20536;-75
2020/12/13 09:06:56;;;;;;;29.47;19.30;;;6.40;98.60;;;;;;5067822;28;20464;-75
2020/12/13 09:09:25;;;;;;;27.97;19.80;;;6.40;97.80;;;;;;5071995;28;20503;-74
2020/12/13 09:11:52;;;;;;;29.60;19.50;;;6.50;98.50;;;;;;5063590;28;20970;-73
2020/12/13 09:14:30;;;;;;;30.90;19.60;;;6.50;97.80;;;;;;5065081;28;20575;-74
2020/12/13 09:16:57;;;;;;;27.93;19.43;;;6.60;99.80;;;;;;5065164;28;20862;-73
2020/12/13 09:19:24;;;;;;;29.33;19.47;;;6.60;99.90;;;;;;5066788;28;20455;-76
2020/12/13 09:21:53;;;;;;;28.77;18.97;;;6.70;99.90;;;;;;5062516;28;20469;-75
2020/12/13 09:24:21;;;;;;;30.37;19.60;;;6.70;99.90;;;;;;5068104;28;20479;-76
2020/12/13 09:27:07;;;;;;;28.70;18.57;;;6.80;99.30;;;;;;5065879;28;20503;-76
2020/12/13 09:29:38;;;;;;;32.00;18.30;;;6.90;99.90;;;;;;5070450;28;20533;-76
2020/12/13 09:32:07;;;;;;;27.30;18.17;;;7.00;99.90;;;;;;5069082;28;20491;-75
2020/12/13 09:34:34;;;;;;;24.27;17.20;;;7.00;98.00;;;;;;5064410;28;20486;-75
2020/12/13 09:37:00;;;;;;;26.00;17.43;;;6.90;95.30;;;;;;5068685;28;20526;-77
2020/12/13 09:39:27;;;;;;;27.23;17.07;;;6.80;96.50;;;;;;5066334;28;20449;-75
2020/12/13 09:41:55;;;;;;;25.43;17.27;;;6.80;96.60;;;;;;5061417;28;20449;-73
2020/12/13 09:44:22;;;;;;;20.33;14.97;;;6.80;97.80;;;;;;5066688;28;20564;-73
2020/12/13 09:46:53;;;;;;;21.97;15.50;;;6.80;97.70;;;;;;5074034;28;20460;-75
2020/12/13 09:49:20;;;;;;;24.10;16.53;;;6.90;97.10;;;;;;5066114;28;20470;-74
2020/12/13 09:51:48;;;;;;;24.13;15.87;;;7.00;96.20;;;;;;5070927;28;20445;-73
2020/12/13 09:54:15;;;;;;;21.97;16.00;;;7.10;95.40;;;;;;5061971;28;22498;-74
2020/12/13 09:56:42;;;;;;;22.20;14.83;;;7.10;95.40;;;;;;5063662;28;20471;-75
2020/12/13 09:59:08;;;;;;;24.50;16.20;;;7.10;96.00;;;;;;5061564;28;20956;-74
2020/12/13 10:01:35;;;;;;;26.30;16.40;;;7.10;94.70;;;;;;5066077;28;20448;-74
2020/12/13 10:04:02;;;;;;;24.63;15.80;;;7.00;96.90;;;;;;5063152;28;20478;-75
2020/12/13 10:06:51;;;;;;;21.70;15.07;;;7.00;98.40;;;;;;5065613;28;20532;-76
2020/12/13 10:09:17;;;;;;;22.97;17.40;;;7.00;97.40;;;;;;5063874;28;20477;-75
2020/12/13 10:11:45;;;;;;;25.13;16.60;;;7.10;98.20;;;;;;5069474;28;20448;-74
2020/12/13 10:14:13;;;;;;;26.87;18.90;;;7.10;98.00;;;;;;5064180;28;20469;-74
2020/12/13 10:16:44;;;;;;;24.30;17.90;;;7.10;96.40;;;;;;5062010;28;21296;-76
2020/12/13 10:19:12;;;;;;;25.97;19.27;;;7.00;97.70;;;;;;5064772;28;20927;-75
2020/12/13 10:21:39;;;;;;;22.80;17.23;;;7.10;98.90;;;;;;5067120;28;20980;-76
2020/12/13 10:24:06;;;;;;;26.10;17.10;;;7.10;96.30;;;;;;5068598;28;20838;-76
2020/12/13 10:26:37;;;;;;;22.37;15.80;;;7.20;95.40;;;;;;5079560;28;20546;-76
2020/12/13 10:29:05;;;;;;;22.63;16.07;;;7.30;95.40;;;;;;5066683;28;20468;-75
2020/12/13 10:31:33;;;;;;;22.90;16.17;;;7.30;94.10;;;;;;5063930;28;20889;-79
2020/12/13 10:34:00;;;;;;;22.80;16.07;;;7.40;93.90;;;;;;5063470;28;20522;-77
2020/12/13 10:36:28;;;;;;;22.43;15.87;;;7.40;93.10;;;;;;5078673;28;20449;-81
2020/12/13 10:38:55;;;;;;;22.97;15.17;;;7.30;93.40;;;;;;5079380;28;20449;-80
2020/12/13 10:41:22;;;;;;;22.20;16.10;;;7.30;93.40;;;;;;5073449;28;20457;-80
2020/12/13 10:43:49;;;;;;;22.67;15.53;;;7.40;93.30;;;;;;5073755;28;20524;-83
2020/12/13 10:46:16;;;;;;;20.50;15.57;;;7.50;92.70;;;;;;5078008;28;20456;-80
2020/12/13 10:48:43;;;;;;;20.87;14.90;;;7.50;92.50;;;;;;5083553;28;20467;-77
2020/12/13 10:51:10;;;;;;;25.03;15.10;;;7.40;92.50;;;;;;5076312;28;20494;-79
2020/12/13 10:53:38;;;;;;;21.13;14.80;;;7.60;92.20;;;;;;5073972;28;20472;-79
2020/12/13 10:56:05;;;;;;;21.90;15.30;;;7.60;92.00;;;;;;5082371;28;20458;-80
2020/12/13 10:58:34;;;;;;;25.90;15.43;;;7.60;92.20;;;;;;5080551;28;20986;-79
2020/12/13 11:01:01;;;;;;;21.40;15.30;;;7.70;91.80;;;;;;5083793;28;20465;-82
2020/12/13 11:03:29;;;;;;;24.33;16.60;;;7.90;91.30;;;;;;5089653;28;20449;-81
2020/12/13 11:05:58;;;;;;;24.93;16.90;;;8.00;90.70;;;;;;5092488;28;20784;-82
2020/12/13 11:08:25;;;;;;;23.10;15.30;;;8.20;90.30;;;;;;5077030;28;20576;-80
2020/12/13 11:10:53;;;;;;;27.37;17.87;;;8.20;89.90;;;;;;5084493;28;20450;-80
2020/12/13 11:13:20;;;;;;;22.90;17.00;;;8.30;89.60;;;;;;5085251;28;20460;-80
2020/12/13 11:15:48;;;;;;;22.00;14.90;;;8.30;88.90;;;;;;5077950;28;20446;-81
2020/12/13 11:18:15;;;;;;;21.13;15.07;;;8.30;88.80;;;;;;5095703;28;20447;-82
2020/12/13 11:20:42;;;;;;;22.70;16.00;;;8.20;88.90;;;;;;5084137;28;20475;-80
2020/12/13 11:23:09;;;;;;;21.40;15.90;;;8.20;89.30;;;;;;5074944;28;20822;-79
2020/12/13 11:25:36;;;;;;;24.57;17.13;;;8.20;89.10;;;;;;5077096;28;20458;-80
2020/12/13 11:28:05;;;;;;;21.90;16.60;;;8.20;89.50;;;;;;5074770;28;20538;-79
2020/12/13 11:30:32;;;;;;;25.33;19.63;;;8.20;90.30;;;;;;5066885;28;20842;-80
2020/12/13 11:33:00;;;;;;;23.37;17.60;;;8.20;91.40;;;;;;5076122;28;21085;-79
2020/12/13 11:35:28;;;;;;;23.00;16.10;;;8.20;90.90;;;;;;5066589;28;20462;-81
2020/12/13 11:37:55;;;;;;;22.20;17.20;;;8.00;90.90;;;;;;5061262;28;20459;-78
2020/12/13 11:40:32;;;;;;;23.07;16.13;;;7.90;91.50;;;;;;5068344;28;20590;-77
2020/12/13 11:43:00;;;;;;;21.07;16.23;;;7.90;91.80;;;;;;5066663;28;20506;-79
2020/12/13 11:45:31;;;;;;;23.93;16.27;;;7.80;92.40;;;;;;5066873;28;20492;-79
2020/12/13 11:47:58;;;;;;;22.70;17.07;;;7.80;92.10;;;;;;5068680;28;20831;-78
2020/12/13 11:50:28;;;;;;;19.33;16.23;;;7.80;92.40;;;;;;5064216;28;20480;-79
2020/12/13 11:52:58;;;;;;;21.57;16.60;;;7.90;92.20;;;;;;5068090;28;20444;-81
2020/12/13 11:55:25;;;;;;;22.27;16.20;;;8.20;97.10;;;;;;5066119;28;20528;-79
2020/12/13 11:57:52;;;;;;;23.47;16.77;;;8.10;93.10;;;;;;5068691;28;20524;-78
2020/12/13 12:00:21;;;;;;;21.83;15.50;;;8.20;91.70;;;;;;5064698;28;20456;-78
2020/12/13 12:02:49;;;;;;;22.30;16.10;;;8.10;91.40;;;;;;5066105;28;20452;-78
2020/12/13 12:05:18;;;;;;;20.40;15.80;;;8.10;91.50;;;;;;5065546;28;20441;-78
2020/12/13 12:07:45;;;;;;;20.20;15.80;;;8.10;91.80;;;;;;5070272;28;20449;-79
2020/12/13 12:10:12;;;;;;;24.47;15.97;;;8.10;91.60;;;;;;5064459;28;20481;-78
2020/12/13 12:12:39;;;;;;;25.80;18.73;;;8.10;91.70;;;;;;5063123;28;20801;-78
2020/12/13 12:15:06;;;;;;;22.37;16.30;;;8.10;93.20;;;;;;5069211;28;20493;-80
2020/12/13 12:17:32;;;;;;;26.27;18.90;;;8.00;93.40;;;;;;5065425;28;20465;-78
2020/12/13 12:20:02;;;;;;;30.90;20.50;;;8.00;95.10;;;;;;5065692;28;21242;-78
2020/12/13 12:22:28;;;;;;;26.83;18.70;;;8.00;96.40;;;;;;5071092;28;20560;-78
2020/12/13 12:24:55;;;;;;;25.73;17.90;;;8.10;97.10;;;;;;5064622;28;20457;-79
2020/12/13 12:27:22;;;;;;;24.73;16.87;;;8.00;95.10;;;;;;5077175;28;20447;-76
2020/12/13 12:29:49;;;;;;;25.17;18.23;;;7.90;96.20;;;;;;5063522;28;21105;-77
2020/12/13 12:32:18;;;;;;;24.77;17.43;;;7.90;97.00;;;;;;5075917;28;20474;-84
2020/12/13 12:34:45;;;;;;;22.67;15.63;;;8.00;97.00;;;;;;5073152;28;20467;-78
2020/12/13 12:37:12;;;;;;;21.00;15.97;;;8.00;97.40;;;;;;5080699;28;20491;-78
2020/12/13 12:39:39;;;;;;;24.57;16.90;;;7.90;98.30;;;;;;5081326;28;20449;-78
2020/12/13 12:42:05;;;;;;;24.77;17.33;;;7.90;98.40;;;;;;5075978;28;20448;-79
2020/12/13 12:44:32;;;;;;;26.47;16.50;;;7.90;99.90;;;;;;5077587;28;20455;-78
2020/12/13 12:46:59;;;;;;;23.17;17.60;;;7.90;99.90;;;;;;5067325;28;20503;-80
2020/12/13 12:49:26;;;;;;;25.70;17.57;;;7.90;99.90;;;;;;5068091;28;20464;-80